createdAt,value
2023-02-05T00:01:28.237Z,26.75
2023-02-05T00:03:54.836Z,35.00
2023-02-05T00:06:21.473Z,33.50
2023-02-05T00:08:48.074Z,27.50
2023-02-05T00:11:14.753Z,30.75
2023-02-05T00:13:42.349Z,28.25
2023-02-05T00:16:18.431Z,32.25
2023-02-05T00:18:45.760Z,30.50
2023-02-05T00:21:13.519Z,29.00
2023-02-05T00:23:40.734Z,30.75
2023-02-05T00:26:07.463Z,31.75
2023-02-05T00:28:35.677Z,27.50
2023-02-05T00:31:08.914Z,29.75
2023-02-05T00:33:35.824Z,31.00
2023-02-05T00:36:02.670Z,29.75
2023-02-05T00:38:29.304Z,30.00
2023-02-05T00:40:55.864Z,31.50
2023-02-05T00:43:22.439Z,31.25
2023-02-05T00:45:49.080Z,25.50
2023-02-05T00:48:15.762Z,27.00
2023-02-05T00:50:42.865Z,25.25
2023-02-05T00:53:09.456Z,28.75
2023-02-05T00:55:36.211Z,25.25
2023-02-05T00:58:02.870Z,25.00
2023-02-05T01:00:29.514Z,23.25
2023-02-05T01:02:56.237Z,27.00
2023-02-05T01:05:22.852Z,29.00
2023-02-05T01:07:49.615Z,28.75
2023-02-05T01:10:16.638Z,28.25
2023-02-05T01:12:43.236Z,24.25
2023-02-05T01:15:12.770Z,23.50
2023-02-05T01:17:39.400Z,24.50
2023-02-05T01:20:07.083Z,28.50
2023-02-05T01:22:33.699Z,28.00
2023-02-05T01:25:00.256Z,28.50
2023-02-05T01:27:26.973Z,28.25
2023-02-05T01:29:53.533Z,30.25
2023-02-05T01:32:20.203Z,27.00
2023-02-05T01:34:46.971Z,24.00
2023-02-05T01:37:13.604Z,25.50
2023-02-05T01:39:40.230Z,25.25
2023-02-05T01:42:31.794Z,27.25
2023-02-05T01:45:23.220Z,27.50
2023-02-05T01:47:58.369Z,24.00
2023-02-05T01:50:29.655Z,24.00
2023-02-05T01:53:00.039Z,26.25
2023-02-05T01:55:28.199Z,25.75
2023-02-05T01:57:55.552Z,22.75
2023-02-05T02:00:23.276Z,25.50
2023-02-05T02:02:49.976Z,22.50
2023-02-05T02:05:18.209Z,32.00
2023-02-05T02:07:44.988Z,20.00
2023-02-05T02:10:15.070Z,25.25
2023-02-05T02:12:44.536Z,20.75
2023-02-05T02:15:15.744Z,27.00
2023-02-05T02:17:45.628Z,20.75
2023-02-05T02:20:15.907Z,22.25
2023-02-05T02:22:54.748Z,27.00
2023-02-05T02:25:36.582Z,25.25
2023-02-05T02:28:22.260Z,25.50
2023-02-05T02:31:07.400Z,17.50
2023-02-05T02:33:48.206Z,22.00
2023-02-05T02:36:38.168Z,23.00
2023-02-05T02:39:19.441Z,24.75
2023-02-05T02:41:54.958Z,22.75
2023-02-05T02:44:28.435Z,23.50
2023-02-05T02:46:59.105Z,22.25
2023-02-05T02:49:34.171Z,21.25
2023-02-05T02:52:06.312Z,27.00
2023-02-05T02:54:35.956Z,23.50
2023-02-05T02:57:07.064Z,20.50
2023-02-05T02:59:36.415Z,22.25
2023-02-05T03:02:05.913Z,18.50
2023-02-05T03:04:39.667Z,20.75
2023-02-05T03:07:17.679Z,19.00
2023-02-05T03:10:03.227Z,21.50
2023-02-05T03:12:30.756Z,20.25
2023-02-05T03:14:57.816Z,22.50
2023-02-05T03:17:26.187Z,21.50
2023-02-05T03:19:58.506Z,17.00
2023-02-05T03:22:25.157Z,21.00
2023-02-05T03:24:52.339Z,25.50
2023-02-05T03:27:21.283Z,20.75
2023-02-05T03:29:49.007Z,16.00
2023-02-05T03:32:47.801Z,22.25
2023-02-05T03:35:34.486Z,19.25
2023-02-05T03:38:10.074Z,20.00
2023-02-05T03:40:55.553Z,14.75
2023-02-05T03:43:43.337Z,20.25
2023-02-05T03:46:28.585Z,17.00
2023-02-05T03:49:01.221Z,16.50
2023-02-05T03:51:52.765Z,19.00
2023-02-05T03:55:01.265Z,14.00
2023-02-05T03:57:39.296Z,16.25
2023-02-05T04:00:07.316Z,15.00
2023-02-05T04:02:34.323Z,14.25
2023-02-05T04:05:00.949Z,15.00
2023-02-05T04:07:27.553Z,14.50
2023-02-05T04:09:54.102Z,19.00
2023-02-05T04:12:20.638Z,16.75
2023-02-05T04:14:47.266Z,18.50
2023-02-05T04:17:13.884Z,13.00
2023-02-05T04:19:41.580Z,19.75
2023-02-05T04:22:08.155Z,16.25
2023-02-05T04:24:34.708Z,16.75
2023-02-05T04:27:01.304Z,15.25
2023-02-05T04:29:28.040Z,15.00
2023-02-05T04:31:54.681Z,17.00
2023-02-05T04:34:21.325Z,17.00
2023-02-05T04:36:47.887Z,16.25
2023-02-05T04:39:14.432Z,14.00
2023-02-05T04:41:41.012Z,17.50
2023-02-05T04:44:07.580Z,18.25
2023-02-05T04:46:34.241Z,15.00
2023-02-05T04:49:00.966Z,16.75
2023-02-05T04:51:27.498Z,19.00
2023-02-05T04:53:54.075Z,16.00
2023-02-05T04:56:20.668Z,17.00
2023-02-05T04:58:47.219Z,17.00
2023-02-05T05:01:20.366Z,17.75
2023-02-05T05:03:47.877Z,17.25
2023-02-05T05:06:15.548Z,21.50
2023-02-05T05:08:42.198Z,18.75
2023-02-05T05:11:13.068Z,16.75
2023-02-05T05:13:40.273Z,25.50
2023-02-05T05:16:07.733Z,15.00
2023-02-05T05:18:35.149Z,17.00
2023-02-05T05:21:02.302Z,15.50
2023-02-05T05:23:28.978Z,14.50
2023-02-05T05:25:55.765Z,18.50
2023-02-05T05:28:22.389Z,15.75
2023-02-05T05:30:49.323Z,17.00
2023-02-05T05:33:16.208Z,15.25
2023-02-05T05:35:42.754Z,18.50
2023-02-05T05:38:09.442Z,18.00
2023-02-05T05:40:54.768Z,15.50
2023-02-05T05:43:40.360Z,15.50
2023-02-05T05:46:08.185Z,17.00
2023-02-05T05:48:34.944Z,20.75
2023-02-05T05:51:01.692Z,20.50
2023-02-05T05:53:28.871Z,17.75
2023-02-05T05:55:55.584Z,14.25
2023-02-05T05:58:22.554Z,19.50
2023-02-05T06:00:49.214Z,18.75
2023-02-05T06:03:15.906Z,16.75
2023-02-05T06:05:42.495Z,15.75
2023-02-05T06:08:09.059Z,18.75
2023-02-05T06:10:36.279Z,17.75
2023-02-05T06:13:02.853Z,21.75
2023-02-05T06:15:29.427Z,16.75
2023-02-05T06:17:56.102Z,17.25
2023-02-05T06:20:23.076Z,13.00
2023-02-05T06:22:49.691Z,18.00
2023-02-05T06:25:16.343Z,16.00
2023-02-05T06:27:42.965Z,15.25
2023-02-05T06:30:10.333Z,15.00
2023-02-05T06:32:36.904Z,21.00
2023-02-05T06:35:03.595Z,21.00
2023-02-05T06:37:46.133Z,18.75
2023-02-05T06:40:15.713Z,22.75
2023-02-05T06:42:42.566Z,21.25
2023-02-05T06:45:10.193Z,16.75
2023-02-05T06:47:37.123Z,19.75
2023-02-05T06:50:04.975Z,21.00
2023-02-05T06:52:31.715Z,18.75
2023-02-05T06:54:58.319Z,22.00
2023-02-05T06:57:24.908Z,21.50
2023-02-05T06:59:51.541Z,18.00
2023-02-05T07:02:18.194Z,14.75
2023-02-05T07:04:44.756Z,18.75
2023-02-05T07:07:11.430Z,18.00
2023-02-05T07:09:37.982Z,16.00
2023-02-05T07:12:04.918Z,20.25
2023-02-05T07:14:31.646Z,17.75
2023-02-05T07:16:58.223Z,17.00
2023-02-05T07:19:24.803Z,17.25
2023-02-05T07:21:51.371Z,17.00
2023-02-05T07:24:17.907Z,17.25
2023-02-05T07:26:45.387Z,19.75
2023-02-05T07:29:12.104Z,25.50
2023-02-05T07:31:38.955Z,20.25
2023-02-05T07:34:05.538Z,19.75
2023-02-05T07:36:32.176Z,20.25
2023-02-05T07:38:58.996Z,27.25
2023-02-05T07:41:26.935Z,15.75
2023-02-05T07:43:54.549Z,17.75
2023-02-05T07:46:22.487Z,18.00
2023-02-05T07:48:49.505Z,17.25
2023-02-05T07:51:22.573Z,18.00
2023-02-05T07:53:49.905Z,19.00
2023-02-05T07:56:17.082Z,18.50
2023-02-05T07:58:43.827Z,17.00
2023-02-05T08:01:10.493Z,17.50
2023-02-05T08:03:37.170Z,18.75
2023-02-05T08:06:05.624Z,17.50
2023-02-05T08:08:32.243Z,19.75
2023-02-05T08:11:01.888Z,17.25
2023-02-05T08:13:28.633Z,19.25
2023-02-05T08:15:55.537Z,23.75
2023-02-05T08:18:22.626Z,16.00
2023-02-05T08:20:53.417Z,15.25
2023-02-05T08:23:20.892Z,13.75
2023-02-05T08:25:47.794Z,14.25
2023-02-05T08:28:14.747Z,20.75
2023-02-05T08:30:41.438Z,19.00
2023-02-05T08:33:08.044Z,15.25
2023-02-05T08:35:34.981Z,15.25
2023-02-05T08:38:01.778Z,16.00
2023-02-05T08:40:28.409Z,19.25
2023-02-05T08:42:57.768Z,20.75
2023-02-05T08:45:24.878Z,18.25
2023-02-05T08:47:51.631Z,19.75
2023-02-05T08:50:19.556Z,14.25
2023-02-05T08:52:46.472Z,16.00
2023-02-05T08:55:13.072Z,18.75
2023-02-05T08:57:40.592Z,15.75
2023-02-05T09:00:07.917Z,17.25
2023-02-05T09:02:34.483Z,18.75
2023-02-05T09:05:09.039Z,16.00
2023-02-05T09:07:37.976Z,13.50
2023-02-05T09:10:07.100Z,17.50
2023-02-05T09:12:33.673Z,17.50
2023-02-05T09:15:01.459Z,15.00
2023-02-05T09:17:28.099Z,15.50
2023-02-05T09:19:54.990Z,13.75
2023-02-05T09:22:21.737Z,17.50
2023-02-05T09:24:48.299Z,17.75
2023-02-05T09:27:15.100Z,20.00
2023-02-05T09:29:41.898Z,22.50
2023-02-05T09:32:08.864Z,16.75
2023-02-05T09:34:35.450Z,19.25
2023-02-05T09:37:02.077Z,18.75
2023-02-05T09:40:17.225Z,21.75
2023-02-05T09:42:38.757Z,17.00
2023-02-05T09:45:23.332Z,18.25
2023-02-05T09:48:07.370Z,18.00
2023-02-05T09:50:35.018Z,15.25
2023-02-05T09:53:09.437Z,15.50
2023-02-05T09:55:39.014Z,18.75
2023-02-05T09:58:15.638Z,18.25
2023-02-05T10:00:45.129Z,24.75
2023-02-05T10:03:45.224Z,15.25
2023-02-05T10:06:11.972Z,17.00
2023-02-05T10:09:02.391Z,20.00
2023-02-05T10:11:45.545Z,17.00
2023-02-05T10:14:25.409Z,16.00
2023-02-05T10:17:13.703Z,18.00
2023-02-05T10:20:09.654Z,17.00
2023-02-05T10:23:05.564Z,22.50
2023-02-05T10:25:45.704Z,17.75
2023-02-05T10:28:36.342Z,20.00
2023-02-05T10:31:31.747Z,18.50
2023-02-05T10:34:13.559Z,24.50
2023-02-05T10:36:40.150Z,20.25
2023-02-05T10:39:14.432Z,22.00
2023-02-05T10:41:49.893Z,19.25
2023-02-05T10:44:42.922Z,15.00
2023-02-05T10:47:24.046Z,19.00
2023-02-05T10:50:00.283Z,32.50
2023-02-05T10:52:27.116Z,20.25
2023-02-05T10:54:53.955Z,18.75
2023-02-05T10:57:23.596Z,16.50
2023-02-05T11:00:02.124Z,20.25
2023-02-05T11:02:38.076Z,17.00
2023-02-05T11:05:17.132Z,16.00
2023-02-05T11:07:47.416Z,19.50
2023-02-05T11:10:19.044Z,19.50
2023-02-05T11:12:51.290Z,20.75
2023-02-05T11:15:24.510Z,16.50
2023-02-05T11:18:21.912Z,19.50
2023-02-05T11:20:57.216Z,18.75
2023-02-05T11:23:25.822Z,16.50
2023-02-05T11:25:58.562Z,16.25
2023-02-05T11:28:32.117Z,18.75
2023-02-05T11:31:23.849Z,17.50
2023-02-05T11:33:50.618Z,16.00
2023-02-05T11:36:24.144Z,16.75
2023-02-05T11:38:57.864Z,14.75
2023-02-05T11:41:48.538Z,15.75
2023-02-05T11:44:30.128Z,15.00
2023-02-05T11:47:00.692Z,18.50
2023-02-05T11:49:36.682Z,16.75
2023-02-05T11:52:14.868Z,16.25
2023-02-05T11:54:47.002Z,15.25
2023-02-05T11:57:22.734Z,17.00
2023-02-05T12:00:17.260Z,17.75
2023-02-05T12:02:44.509Z,16.00
2023-02-05T12:05:19.361Z,13.75
2023-02-05T12:07:55.210Z,20.00
2023-02-05T12:10:54.262Z,16.00
2023-02-05T12:13:26.523Z,16.50
2023-02-05T12:16:10.828Z,16.25
2023-02-05T12:18:48.979Z,17.50
2023-02-05T12:21:30.525Z,14.00
2023-02-05T12:24:38.556Z,17.00
2023-02-05T12:27:13.781Z,14.75
2023-02-05T12:30:09.145Z,15.75
2023-02-05T12:33:03.322Z,13.00
2023-02-05T12:35:45.928Z,14.75
2023-02-05T12:38:48.205Z,13.00
2023-02-05T12:41:42.697Z,14.25
2023-02-05T12:44:32.237Z,20.75
2023-02-05T12:47:09.046Z,16.25
2023-02-05T12:49:41.770Z,13.75
2023-02-05T12:52:18.156Z,15.25
2023-02-05T12:54:53.716Z,15.75
2023-02-05T12:57:26.404Z,18.25
2023-02-05T12:59:58.468Z,15.50
2023-02-05T13:02:42.931Z,15.25
2023-02-05T13:05:34.007Z,13.25
2023-02-05T13:08:12.270Z,14.00
2023-02-05T13:10:53.321Z,19.50
2023-02-05T13:13:30.461Z,14.75
2023-02-05T13:16:12.805Z,14.00
2023-02-05T13:18:44.457Z,16.00
2023-02-05T13:21:35.091Z,15.00
2023-02-05T13:24:48.017Z,14.00
2023-02-05T13:27:43.534Z,15.75
2023-02-05T13:30:17.014Z,19.00
2023-02-05T13:32:48.572Z,14.75
2023-02-05T13:35:15.633Z,13.50
2023-02-05T13:37:56.816Z,17.75
2023-02-05T13:40:51.241Z,16.25
2023-02-05T13:43:35.989Z,16.50
2023-02-05T13:46:34.900Z,14.00
2023-02-05T13:49:44.825Z,18.25
2023-02-05T13:52:35.598Z,18.25
2023-02-05T13:55:27.284Z,16.75
2023-02-05T13:58:11.926Z,17.75
2023-02-05T14:00:42.526Z,20.00
2023-02-05T14:03:21.800Z,18.00
2023-02-05T14:05:48.511Z,22.00
2023-02-05T14:08:38.510Z,17.75
2023-02-05T14:11:06.325Z,18.75
2023-02-05T14:13:34.757Z,19.00
2023-02-05T14:16:26.324Z,16.75
2023-02-05T14:19:01.664Z,17.75
2023-02-05T14:21:31.339Z,17.25
2023-02-05T14:24:35.544Z,18.25
2023-02-05T14:27:02.218Z,16.00
2023-02-05T14:29:46.720Z,18.50
2023-02-05T14:32:39.148Z,17.50
2023-02-05T14:35:26.115Z,18.25
2023-02-05T14:37:57.599Z,16.25
2023-02-05T14:40:28.528Z,17.00
2023-02-05T14:43:09.587Z,19.50
2023-02-05T14:45:43.889Z,20.25
2023-02-05T14:48:21.030Z,19.33
2023-02-05T14:51:16.221Z,16.00
2023-02-05T14:54:00.285Z,17.75
2023-02-05T14:56:54.605Z,17.25
2023-02-05T14:59:45.579Z,15.50
2023-02-05T15:02:52.081Z,17.75
2023-02-05T15:05:21.665Z,17.75
2023-02-05T15:07:52.293Z,14.25
2023-02-05T15:10:25.616Z,18.50
2023-02-05T15:12:58.279Z,20.00
2023-02-05T15:15:33.625Z,13.50
2023-02-05T15:18:09.251Z,15.75
2023-02-05T15:20:40.440Z,16.50
2023-02-05T15:23:48.027Z,21.75
2023-02-05T15:26:41.888Z,15.25
2023-02-05T15:29:41.435Z,13.75
2023-02-05T15:32:25.637Z,16.50
2023-02-05T15:35:02.295Z,15.00
2023-02-05T15:37:33.976Z,17.00
2023-02-05T15:40:10.482Z,17.50
2023-02-05T15:42:40.324Z,20.75
2023-02-05T15:45:19.251Z,14.75
2023-02-05T15:47:46.247Z,18.75
2023-02-05T15:50:14.991Z,20.25
2023-02-05T15:52:42.021Z,22.50
2023-02-05T15:55:13.257Z,24.00
2023-02-05T15:57:39.948Z,16.50
2023-02-05T16:00:09.628Z,17.25
2023-02-05T16:02:40.022Z,19.75
2023-02-05T16:05:20.192Z,16.75
2023-02-05T16:07:55.373Z,19.25
2023-02-05T16:10:24.506Z,23.00
2023-02-05T16:13:05.392Z,22.50
2023-02-05T16:15:44.780Z,21.50
2023-02-05T16:18:29.254Z,19.00
2023-02-05T16:21:00.877Z,19.00
2023-02-05T16:23:32.964Z,21.50
2023-02-05T16:26:17.811Z,17.00
2023-02-05T16:28:55.726Z,19.75
2023-02-05T16:31:25.059Z,17.00
2023-02-05T16:33:57.685Z,20.00
2023-02-05T16:36:27.643Z,23.25
2023-02-05T16:38:57.349Z,19.50
2023-02-05T16:41:31.309Z,23.75
2023-02-05T16:44:03.746Z,19.50
2023-02-05T16:46:31.950Z,19.50
2023-02-05T16:49:04.672Z,22.50
2023-02-05T16:51:37.293Z,21.25
2023-02-05T16:54:12.629Z,20.25
2023-02-05T16:56:46.518Z,23.25
2023-02-05T16:59:23.037Z,18.50
2023-02-05T17:01:51.461Z,20.00
2023-02-05T17:04:27.300Z,18.75
2023-02-05T17:06:56.987Z,17.50
2023-02-05T17:09:36.350Z,21.00
2023-02-05T17:12:21.431Z,19.25
2023-02-05T17:15:02.531Z,22.25
2023-02-05T17:17:32.084Z,23.00
2023-02-05T17:20:04.342Z,23.50
2023-02-05T17:22:32.040Z,23.00
2023-02-05T17:24:59.240Z,21.25
2023-02-05T17:27:30.693Z,21.50
2023-02-05T17:29:59.036Z,20.00
2023-02-05T17:32:27.051Z,30.50
2023-02-05T17:34:53.762Z,26.00
2023-02-05T17:37:20.346Z,24.00
2023-02-05T17:39:47.027Z,22.25
2023-02-05T17:42:22.646Z,23.00
2023-02-05T17:44:49.768Z,26.50
2023-02-05T17:47:16.573Z,22.25
2023-02-05T17:49:43.293Z,32.25
2023-02-05T17:52:10.486Z,26.25
2023-02-05T17:54:37.331Z,24.25
2023-02-05T17:57:19.548Z,26.00
2023-02-05T17:59:46.993Z,29.00
2023-02-05T18:02:14.580Z,29.25
2023-02-05T18:04:41.588Z,33.00
2023-02-05T18:07:33.168Z,32.00
2023-02-05T18:09:59.809Z,31.25
2023-02-05T18:12:26.989Z,29.00
2023-02-05T18:14:54.000Z,27.25
2023-02-05T18:17:21.119Z,28.50
2023-02-05T18:19:47.742Z,30.50
2023-02-05T18:22:14.349Z,30.50
2023-02-05T18:24:40.986Z,34.25
2023-02-05T18:27:08.291Z,31.50
2023-02-05T18:29:35.653Z,31.00
2023-02-05T18:32:02.396Z,32.50
2023-02-05T18:34:28.977Z,27.75
2023-02-05T18:36:55.623Z,29.25
2023-02-05T18:39:22.621Z,37.00
2023-02-05T18:41:49.168Z,34.75
2023-02-05T18:44:16.419Z,33.50
2023-02-05T18:46:43.113Z,32.75
2023-02-05T18:49:09.740Z,36.25
2023-02-05T18:51:37.389Z,32.75
2023-02-05T18:54:06.722Z,35.00
2023-02-05T18:56:33.390Z,39.00
2023-02-05T18:59:03.247Z,36.00
2023-02-05T19:01:32.387Z,37.25
2023-02-05T19:04:05.112Z,34.25
2023-02-05T19:06:32.714Z,35.00
2023-02-05T19:09:00.572Z,31.25
2023-02-05T19:11:28.043Z,35.50
2023-02-05T19:14:05.448Z,31.75
2023-02-05T19:16:33.669Z,31.50
2023-02-05T19:19:00.670Z,31.75
2023-02-05T19:21:29.506Z,27.75
2023-02-05T19:23:58.316Z,30.75
2023-02-05T19:26:27.846Z,30.25
2023-02-05T19:28:57.465Z,28.00
2023-02-05T19:31:26.509Z,35.00
2023-02-05T19:33:53.574Z,36.75
2023-02-05T19:36:20.228Z,28.00
2023-02-05T19:38:46.992Z,28.00
2023-02-05T19:41:22.742Z,26.25
2023-02-05T19:43:52.365Z,24.75
2023-02-05T19:46:21.824Z,24.50
2023-02-05T19:48:48.525Z,27.50
2023-02-05T19:51:16.227Z,28.25
2023-02-05T19:53:45.341Z,25.00
2023-02-05T19:56:17.852Z,23.25
2023-02-05T19:58:47.528Z,25.25
2023-02-05T20:01:16.447Z,21.25
2023-02-05T20:03:44.927Z,20.75
2023-02-05T20:06:14.052Z,20.25
2023-02-05T20:08:41.061Z,23.50
2023-02-05T20:11:08.108Z,23.50
2023-02-05T20:13:37.057Z,23.50
2023-02-05T20:16:13.697Z,24.25
2023-02-05T20:18:41.648Z,22.00
2023-02-05T20:21:10.488Z,20.75
2023-02-05T20:23:37.558Z,19.50
2023-02-05T20:26:05.451Z,22.00
2023-02-05T20:28:33.567Z,19.75
2023-02-05T20:31:19.060Z,23.25
2023-02-05T20:33:49.954Z,23.75
2023-02-05T20:36:16.651Z,21.75
2023-02-05T20:38:43.246Z,18.50
2023-02-05T20:41:14.938Z,18.75
2023-02-05T20:43:41.714Z,17.50
2023-02-05T20:46:10.631Z,18.50
2023-02-05T20:48:38.348Z,17.50
2023-02-05T20:51:13.943Z,20.50
2023-02-05T20:53:40.770Z,24.50
2023-02-05T20:56:10.707Z,17.75
2023-02-05T20:58:37.654Z,14.50
2023-02-05T21:01:07.315Z,15.00
2023-02-05T21:03:34.792Z,16.75
2023-02-05T21:06:01.745Z,12.00
2023-02-05T21:08:28.813Z,16.75
2023-02-05T21:10:55.389Z,14.50
2023-02-05T21:13:22.159Z,15.25
2023-02-05T21:15:57.748Z,12.75
2023-02-05T21:18:26.535Z,14.00
2023-02-05T21:20:53.941Z,16.00
2023-02-05T21:23:21.569Z,14.00
2023-02-05T21:25:48.239Z,14.25
2023-02-05T21:28:15.387Z,14.25
2023-02-05T21:30:43.211Z,15.25
2023-02-05T21:33:09.834Z,13.50
2023-02-05T21:35:39.459Z,15.00
2023-02-05T21:38:06.028Z,11.50
2023-02-05T21:40:33.735Z,14.75
2023-02-05T21:43:00.466Z,14.50
2023-02-05T21:45:27.060Z,16.00
2023-02-05T21:47:53.701Z,16.25
2023-02-05T21:50:20.267Z,12.00
2023-02-05T21:52:46.892Z,13.75
2023-02-05T21:55:13.462Z,13.25
2023-02-05T21:57:40.058Z,12.25
2023-02-05T22:00:06.866Z,10.25
2023-02-05T22:02:33.446Z,9.00
2023-02-05T22:05:00.100Z,11.75
2023-02-05T22:07:26.637Z,11.00
2023-02-05T22:09:53.235Z,10.50
2023-02-05T22:12:19.824Z,10.75
2023-02-05T22:14:47.818Z,9.25
2023-02-05T22:17:14.490Z,12.00
2023-02-05T22:19:41.026Z,9.75
2023-02-05T22:22:07.620Z,10.75
2023-02-05T22:24:34.265Z,8.25
2023-02-05T22:27:01.067Z,10.00
2023-02-05T22:29:27.646Z,9.50
2023-02-05T22:31:54.376Z,11.75
2023-02-05T22:34:21.687Z,11.75
2023-02-05T22:36:48.366Z,9.75
2023-02-05T22:39:15.123Z,8.25
2023-02-05T22:41:43.221Z,11.25
2023-02-05T22:44:11.795Z,6.50
2023-02-05T22:46:42.070Z,7.00
2023-02-05T22:49:08.757Z,7.00
2023-02-05T22:51:38.945Z,9.00
2023-02-05T22:54:06.713Z,10.75
2023-02-05T22:56:33.737Z,9.75
2023-02-05T22:59:03.125Z,9.00
2023-02-05T23:01:32.514Z,8.25
2023-02-05T23:04:01.333Z,6.25
2023-02-05T23:06:30.568Z,8.00
2023-02-05T23:09:04.041Z,8.00
2023-02-05T23:11:31.945Z,8.00
2023-02-05T23:13:59.861Z,9.00
2023-02-05T23:16:29.687Z,10.50
2023-02-05T23:19:02.648Z,12.75
2023-02-05T23:21:31.425Z,10.25
2023-02-05T23:23:58.391Z,9.50
2023-02-05T23:26:27.238Z,12.50
2023-02-05T23:28:55.296Z,6.75
2023-02-05T23:31:23.205Z,10.75
2023-02-05T23:33:50.575Z,6.25
2023-02-05T23:36:17.342Z,8.00
2023-02-05T23:38:44.204Z,7.00
2023-02-05T23:41:12.250Z,8.00
2023-02-05T23:43:39.251Z,9.00
2023-02-05T23:46:07.662Z,7.75
2023-02-05T23:48:34.927Z,7.00
2023-02-05T23:51:01.797Z,5.00
2023-02-05T23:53:28.447Z,10.50
2023-02-05T23:55:55.947Z,4.50
2023-02-05T23:58:27.991Z,8.75
